Meteoblue:





Windguru:








TAF EPZG

2015/07/31 21:33
TAF EPZG 312030Z 3121/0106 VRB02KT CAVOK= TAF ESNU 312030Z 3121/0106 29005KT CAVOK BECMG 3121/3123 2000 MIFG TEMPO 3123/0103 0500 BCFG BECMG 0103/0105 CAVOK

End of a METAR report is indicated by '='. It will be decoded until the first '='!!
 
Location: EPZG
ZIELONA GORA - POLAND
Latitude: 52°08'19"N - Longitude: 015°47'55"E.
Magnetic declination: 4.11°E
Sunrise: 03:16 UTC
Sunset: 18:50 UTC
Report emitted the day: 31, time 20:30 UTC
Friday 31 July 2015 22:30 local time.
The forecast valid time are from day of the month: 31 time: 21:00 UTC (Friday 31 July 2015 23:00 local time) to day of the month: 01 time: 06:00 UTC (Wednesday 1 July 2015 08:00 local time).
Wind: Variable in direction, speed: 2 knots (4 km/h) (1 m/s).
CAVOK conditions: Visibility 10 km or more,
no cloud below 5,000 feet or below the MSA (whichever is greater),
no cumulonimbus, and no significant weather phenomena in
the aerodrome or its vicinity.
0:52
Taf reliability - Emission time in hours and minutes
4.11°E
Magnetic declination
03:16 Z
Sunrise
18:50 Z
Sunset
Map
Show on Google Maps

METAR EPZG

EPZG 312000Z 22001KT CAVOK 13/08 Q1019

Location: EPZG
ZIELONA GORA - POLAND
Latitude: 52°08'19"N - Longitude: 015°47'55"E.
Magnetic declination: 4.11°E
Sunrise: 03:16 UTC
Sunset: 18:50 UTC
Report emitted the day: 31, time 20:00 UTC
Friday 31 July 2015 22:00 local time.
Wind: True direction = 220 degrees, speed: 1 knots (2 km/h) (1 m/s).
Runway 06, length 8202 feet, altitude 194 feet: Cross Wind 0 KT Right - Centerline Wind 1 KT rear.
Runway 24, length 8202 feet, altitude 187 feet: Cross Wind 0 KT Left - Centerline Wind 1 KT front.
CAVOK conditions: Visibility 10 km or more,
no cloud below 5,000 feet or below the MSA (whichever is greater),
no cumulonimbus, and no significant weather phenomena in
the aerodrome or its vicinity.
Temperature: 13 degrees Celsius (55 Fahrenheit). Dewpoint: 8 degrees Celsius (46 Fahrenheit). Relative humidity 71.66 %.
QNH (Sea-level pressure): 1019 hPa (30.09 inches).
1:22
Metar reliability - Emission time in hours and minutes
NOAA
Visual Flight Rules
1 KT
Wind
13/8
Temperature / Dewpoint
>10Km
Minimum horizontal visibility
 
Clear sky
1019
Sea level pressure
4.11°E
Magnetic declination
03:16 Z
Sunrise
18:50 Z
Sunset
Map
Show on Google Maps